Nautilus — OUYX2 — position and weather

sailwx.info

Track history (hours):
 
Tides and Currents Weather Stations Pressure Air Temp Water Temp Dewpoint Dewpoint Depression Visibility Wind Speed Wind Dir Waves Ship Positions

Nautilus

Last reported at 2017-Mar-27 10:33 UTC. Time now 2017-Mar-27 20:35 UTC.
Position N 55°03' E 009°26'.

Length 120 m; draft 7 m.

Type: Ship. MMSI: 219425000.

Date/timePositionNaut miles runAvg speedWind from/ knotsBaromVisibWave heightAir tempDewpointWater temp
2017-Mar-27 10:33N 55°03' E 009°26'4 3.8
2017-Mar-27 09:27N 55°03' E 009°33'1111.2
2017-Mar-27 08:25N 55°12' E 009°46'9 9.5
2017-Mar-27 07:27N 55°21' E 009°48'1011.2
2017-Mar-27 06:32N 55°30' E 009°39'8 8.7
2017-Mar-27 05:33N 55°35' E 009°51'1310.9
2017-Mar-27 04:20N 55°41' E 010°12'912.1
2017-Mar-27 03:33N 55°44' E 010°28'2211.2
2017-Mar-27 01:33N 55°57' E 010°60'5911.7
2017-Mar-26 20:33N 56°49' E 011°50'1312.2
2017-Mar-26 19:31N 57°01' E 011°42'1212.4
2017-Mar-26 18:30N 57°13' E 011°34'1212.7
2017-Mar-26 17:33N 57°24' E 011°27'1212.2
2017-Mar-26 16:33N 57°34' E 011°12'1212.5
2017-Mar-26 15:33N 57°42' E 010°55'1212.0
2017-Mar-26 14:33N 57°48' E 010°35'1413.6
2017-Mar-26 13:33N 57°47' E 010°10'1312.9
2017-Mar-26 12:33N 57°46' E 009°46'1412.8
2017-Mar-26 11:28N 57°45' E 009°20'6212.7
2017-Mar-26 06:32N 57°42' E 007°23'1212.5
2017-Mar-26 05:33N 57°42' E 006°60'1312.5
2017-Mar-26 04:33N 57°43' E 006°36'1312.6
2017-Mar-26 03:31N 57°51' E 006°17'1212.9
2017-Mar-26 02:33N 57°59' E 005°59'2913.0
2017-Mar-26 00:19N 58°18' E 005°17'1012.8
2017-Mar-25 23:33N 58°24' E 005°04'1313.3
2017-Mar-25 22:33N 58°34' E 004°46'12511.4
2017-Mar-25 11:33N 60°38' E 004°25'10 9.7
2017-Mar-25 10:33N 60°45' E 004°40'8 7.7
2017-Mar-25 09:33N 60°51' E 004°50'6 6.2
2017-Mar-25 08:31N 60°49' E 005°03'0 0.0
2017-Mar-25 07:31N 60°49' E 005°03'0 0.0
2017-Mar-25 06:31N 60°49' E 005°03'0 0.0
2017-Mar-25 05:31N 60°49' E 005°03'0 0.0
2017-Mar-25 04:31N 60°49' E 005°03'0 0.0
2017-Mar-25 03:31N 60°49' E 005°03'0 0.0
2017-Mar-25 02:31N 60°49' E 005°03'0 0.0
2017-Mar-25 01:31N 60°49' E 005°03'0 0.0
2017-Mar-25 00:31N 60°49' E 005°03'0 0.0
2017-Mar-24 23:31N 60°49' E 005°03'0 0.0
2017-Mar-24 22:31N 60°49' E 005°03'0 0.1
2017-Mar-24 21:33N 60°49' E 005°03'2 2.2
2017-Mar-24 20:32N 60°49' E 004°58'0 0.0
2017-Mar-24 19:32N 60°49' E 004°58'0 0.0
2017-Mar-24 18:33N 60°49' E 004°58'7 7.0
2017-Mar-24 17:34N 60°50' E 004°44'1312.7
2017-Mar-24 16:33N 60°38' E 004°53'1414.0
2017-Mar-24 15:33N 60°25' E 005°04'5 4.9
2017-Mar-24 14:32N 60°24' E 005°14'0 0.0
2017-Mar-24 13:29N 60°24' E 005°14'0 0.0
2017-Mar-24 12:30N 60°24' E 005°14'0 0.0
2017-Mar-24 11:32N 60°24' E 005°14'0 0.0
2017-Mar-24 10:32N 60°24' E 005°14'0 0.0
2017-Mar-24 09:33N 60°24' E 005°14'0 0.0
2017-Mar-24 08:33N 60°24' E 005°14'0 0.0
2017-Mar-24 07:32N 60°24' E 005°14'0 0.0
2017-Mar-24 06:31N 60°24' E 005°14'0 0.0
2017-Mar-24 05:31N 60°24' E 005°14'0 0.2
2017-Mar-24 04:34N 60°24' E 005°14'1110.5
2017-Mar-24 03:34N 60°13' E 005°10'1313.1
2017-Mar-24 02:34N 60°01' E 005°20'1313.3
2017-Mar-24 01:33N 59°50' E 005°33'1212.2
2017-Mar-24 00:33N 59°39' E 005°21'1212.1
2017-Mar-23 23:33N 59°28' E 005°13'4 3.4
2017-Mar-23 22:31N 59°24' E 005°15'0 0.0
2017-Mar-23 21:31N 59°24' E 005°15'0 0.0
2017-Mar-23 20:31N 59°24' E 005°15'0 0.0
2017-Mar-23 19:31N 59°24' E 005°15'0 0.0
2017-Mar-23 18:31N 59°24' E 005°15'0 0.0
2017-Mar-23 17:31N 59°24' E 005°15'0 0.0
2017-Mar-23 16:31N 59°24' E 005°15'0 0.0
2017-Mar-23 15:10N 59°24' E 005°15'0 0.0
2017-Mar-23 14:31N 59°24' E 005°15'0 0.0
2017-Mar-23 13:31N 59°24' E 005°15'0 0.3
2017-Mar-23 12:33N 59°24' E 005°16'1111.1
2017-Mar-23 11:33N 59°13' E 005°21'1010.0
2017-Mar-23 10:33N 59°04' E 005°18'1110.7
2017-Mar-23 09:33N 58°54' E 005°11'1211.8
2017-Mar-23 08:33N 58°42' E 005°13'1212.0
2017-Mar-23 07:33N 58°30' E 005°18'1211.6
2017-Mar-23 06:33N 58°20' E 005°28'1212.1
2017-Mar-23 05:33N 58°12' E 005°45'1312.5
2017-Mar-23 04:33N 58°04' E 006°04'1212.2
2017-Mar-23 03:33N 57°56' E 006°21'1211.8
2017-Mar-23 02:33N 57°48' E 006°38'1212.2
2017-Mar-23 01:33N 57°48' E 007°01'1212.1
2017-Mar-23 00:33N 57°48' E 007°23'1211.9
2017-Mar-22 23:33N 57°54' E 007°43'1212.0
2017-Mar-22 22:33N 58°00' E 008°02'8 8.2
2017-Mar-22 21:33N 58°08' E 007°59'0 0.0
2017-Mar-22 20:32N 58°08' E 007°59'0 0.0
2017-Mar-22 19:32N 58°08' E 007°59'0 0.0
2017-Mar-22 18:32N 58°08' E 007°59'0 0.0
2017-Mar-22 17:32N 58°08' E 007°59'0 0.0
2017-Mar-22 16:32N 58°08' E 007°59'0 0.0
2017-Mar-22 15:33N 58°08' E 007°59'7 6.9
2017-Mar-22 14:33N 58°03' E 008°07'9 8.7
2017-Mar-22 13:33N 57°60' E 008°22'64 7.8
2017-Mar-22 05:20N 57°50' E 010°21'6 7.9
2017-Mar-22 04:34N 57°49' E 010°32'7 7.5
2017-Mar-22 03:33N 57°48' E 010°46'9 8.8
2017-Mar-22 02:33N 57°45' E 011°01'9 8.9
2017-Mar-22 01:34N 57°41' E 011°17'9 9.2
2017-Mar-22 00:33N 57°38' E 011°33'9 8.9
2017-Mar-21 23:34N 57°41' E 011°48'2 2.4
2017-Mar-21 22:32N 57°41' E 011°53'0 0.0
2017-Mar-21 21:32N 57°41' E 011°53'0 0.0
2017-Mar-21 20:32N 57°41' E 011°53'0 0.0
2017-Mar-21 19:32N 57°41' E 011°53'0 0.0
2017-Mar-21 18:32N 57°41' E 011°53'0 0.0
2017-Mar-21 17:32N 57°41' E 011°53'0 0.0
2017-Mar-21 16:32N 57°41' E 011°53'0 0.0
2017-Mar-21 15:32N 57°41' E 011°53'0 0.0
2017-Mar-21 14:32N 57°41' E 011°53'0 0.0
2017-Mar-21 13:32N 57°41' E 011°53'0 0.0
2017-Mar-21 12:32N 57°41' E 011°53'0 0.0
2017-Mar-21 11:32N 57°41' E 011°53'0 0.0
2017-Mar-21 10:32N 57°41' E 011°53'0 0.3
2017-Mar-21 09:33N 57°41' E 011°53'0 0.0
2017-Mar-21 08:32N 57°41' E 011°53'0 0.0
2017-Mar-21 07:32N 57°41' E 011°53'0 0.0
2017-Mar-21 06:32N 57°41' E 011°53'0 0.0
2017-Mar-21 05:32N 57°41' E 011°53'0 0.0
2017-Mar-21 04:32N 57°41' E 011°53'0 0.0
2017-Mar-21 03:33N 57°41' E 011°53'0 0.0
2017-Mar-21 02:33N 57°41' E 011°53'0 0.0
2017-Mar-21 01:33N 57°41' E 011°53'0 0.1
2017-Mar-21 00:33N 57°41' E 011°53'1 0.5
2017-Mar-20 23:32N 57°41' E 011°52'0 0.0
2017-Mar-20 22:29N 57°41' E 011°52'0 0.0
2017-Mar-20 21:32N 57°41' E 011°52'0 0.0
2017-Mar-20 20:32N 57°41' E 011°52'0 0.0
2017-Mar-20 19:32N 57°41' E 011°52'0 0.0
2017-Mar-20 18:32N 57°41' E 011°52'0 0.0
2017-Mar-20 17:32N 57°41' E 011°52'0 0.0
2017-Mar-20 16:32N 57°41' E 011°52'0 0.0
2017-Mar-20 15:32N 57°41' E 011°52'0 0.0
2017-Mar-20 14:32N 57°41' E 011°52'0 0.0
2017-Mar-20 13:32N 57°41' E 011°52'0 0.0
2017-Mar-20 12:32N 57°41' E 011°52'0 0.0
2017-Mar-20 11:32N 57°41' E 011°52'0 0.0
2017-Mar-20 10:32N 57°41' E 011°52'0 0.0
2017-Mar-20 09:32N 57°41' E 011°52'0 0.0
2017-Mar-20 08:32N 57°41' E 011°52'0 0.0
2017-Mar-20 07:32N 57°41' E 011°52'0 0.0
2017-Mar-20 06:32N 57°41' E 011°52'0 0.0
2017-Mar-20 05:33N 57°41' E 011°52'4 4.1
2017-Mar-20 04:33N 57°39' E 011°46'10 9.6
2017-Mar-20 03:33N 57°31' E 011°38'10 9.7
2017-Mar-20 02:33N 57°22' E 011°46'10 9.6
2017-Mar-20 01:33N 57°13' E 011°54'62 9.8
2017-Mar-19 19:14N 56°14' E 012°27'7 9.7
2017-Mar-19 18:33N 56°08' E 012°32'1010.5
2017-Mar-19 17:33N 55°59' E 012°42'9 9.1
2017-Mar-19 16:33N 55°50' E 012°45'10 9.8
2017-Mar-19 15:33N 55°42' E 012°54'9 9.0
2017-Mar-19 14:33N 55°33' E 012°48'1110.9
2017-Mar-19 13:33N 55°23' E 012°41'1110.5
2017-Mar-19 12:33N 55°13' E 012°40'1110.5
2017-Mar-19 11:32N 55°02' E 012°42'1010.2
2017-Mar-19 10:33N 54°52' E 012°44'9 8.8
2017-Mar-19 09:33N 54°44' E 012°40'1010.4
2017-Mar-19 08:33N 54°38' E 012°25'9 9.1
2017-Mar-19 07:33N 54°30' E 012°16'1110.0
2017-Mar-19 06:26N 54°21' E 012°06'9 9.8
2017-Mar-19 05:32N 54°12' E 012°05'3 0.4
2017-Mar-18 22:31N 54°09' E 012°08'0 0.0
2017-Mar-18 21:31N 54°09' E 012°08'0 0.0
2017-Mar-18 19:07N 54°09' E 012°08'0 0.0
2017-Mar-18 18:31N 54°09' E 012°08'0 0.0
2017-Mar-18 15:14N 54°09' E 012°08'2 3.3
2017-Mar-18 14:33N 54°11' E 012°05'1111.5
2017-Mar-18 13:34N 54°22' E 011°59'10 9.7
2017-Mar-18 12:34N 54°29' E 012°11'1111.3
2017-Mar-18 11:34N 54°39' E 012°20'6011.5
2017-Mar-18 06:20N 55°02' E 013°57'910.8
2017-Mar-18 05:31N 55°06' E 014°09'1111.5
2017-Mar-18 04:34N 55°15' E 014°21'1312.5
2017-Mar-18 03:34N 55°25' E 014°35'1212.1
2017-Mar-18 02:33N 55°31' E 014°54'1111.3
2017-Mar-18 01:33N 55°36' E 015°11'1111.1
2017-Mar-18 00:33N 55°40' E 015°29'1111.2
2017-Mar-17 23:34N 55°46' E 015°46'1111.1
2017-Mar-17 22:33N 55°53' E 016°02'1110.8
2017-Mar-17 21:34N 55°59' E 016°17'1111.1
2017-Mar-17 20:34N 56°06' E 016°34'1110.8
2017-Mar-17 19:33N 56°14' E 016°47'1211.4
2017-Mar-17 18:32N 56°25' E 016°54'  
Track history (hours):
 
Tides and Currents Weather Stations Pressure Air Temp Water Temp Dewpoint Dewpoint Depression Visibility Wind Speed Wind Dir Waves Ship Positions

Nautilus

Last reported at 2017-Mar-27 10:33 UTC. Time now 2017-Mar-27 20:35 UTC.
Position N 55°03' E 009°26'.

Length 120 m; draft 7 m.

Type: Ship. MMSI: 219425000.

Date/timePositionNaut miles runAvg speedWind from/ knotsBaromVisibWave heightAir tempDewpointWater temp
2017-Mar-27 10:33N 55°03' E 009°26'4 3.8
2017-Mar-27 09:27N 55°03' E 009°33'1111.2
2017-Mar-27 08:25N 55°12' E 009°46'9 9.5
2017-Mar-27 07:27N 55°21' E 009°48'1011.2
2017-Mar-27 06:32N 55°30' E 009°39'8 8.7
2017-Mar-27 05:33N 55°35' E 009°51'1310.9
2017-Mar-27 04:20N 55°41' E 010°12'912.1
2017-Mar-27 03:33N 55°44' E 010°28'2211.2
2017-Mar-27 01:33N 55°57' E 010°60'5911.7
2017-Mar-26 20:33N 56°49' E 011°50'1312.2
2017-Mar-26 19:31N 57°01' E 011°42'1212.4
2017-Mar-26 18:30N 57°13' E 011°34'1212.7
2017-Mar-26 17:33N 57°24' E 011°27'1212.2
2017-Mar-26 16:33N 57°34' E 011°12'1212.5
2017-Mar-26 15:33N 57°42' E 010°55'1212.0
2017-Mar-26 14:33N 57°48' E 010°35'1413.6
2017-Mar-26 13:33N 57°47' E 010°10'1312.9
2017-Mar-26 12:33N 57°46' E 009°46'1412.8
2017-Mar-26 11:28N 57°45' E 009°20'6212.7
2017-Mar-26 06:32N 57°42' E 007°23'1212.5
2017-Mar-26 05:33N 57°42' E 006°60'1312.5
2017-Mar-26 04:33N 57°43' E 006°36'1312.6
2017-Mar-26 03:31N 57°51' E 006°17'1212.9
2017-Mar-26 02:33N 57°59' E 005°59'2913.0
2017-Mar-26 00:19N 58°18' E 005°17'1012.8
2017-Mar-25 23:33N 58°24' E 005°04'1313.3
2017-Mar-25 22:33N 58°34' E 004°46'12511.4
2017-Mar-25 11:33N 60°38' E 004°25'10 9.7
2017-Mar-25 10:33N 60°45' E 004°40'8 7.7
2017-Mar-25 09:33N 60°51' E 004°50'6 6.2
2017-Mar-25 08:31N 60°49' E 005°03'0 0.0
2017-Mar-25 07:31N 60°49' E 005°03'0 0.0
2017-Mar-25 06:31N 60°49' E 005°03'0 0.0
2017-Mar-25 05:31N 60°49' E 005°03'0 0.0
2017-Mar-25 04:31N 60°49' E 005°03'0 0.0
2017-Mar-25 03:31N 60°49' E 005°03'0 0.0
2017-Mar-25 02:31N 60°49' E 005°03'0 0.0
2017-Mar-25 01:31N 60°49' E 005°03'0 0.0
2017-Mar-25 00:31N 60°49' E 005°03'0 0.0
2017-Mar-24 23:31N 60°49' E 005°03'0 0.0
2017-Mar-24 22:31N 60°49' E 005°03'0 0.1
2017-Mar-24 21:33N 60°49' E 005°03'2 2.2
2017-Mar-24 20:32N 60°49' E 004°58'0 0.0
2017-Mar-24 19:32N 60°49' E 004°58'0 0.0
2017-Mar-24 18:33N 60°49' E 004°58'7 7.0
2017-Mar-24 17:34N 60°50' E 004°44'1312.7
2017-Mar-24 16:33N 60°38' E 004°53'1414.0
2017-Mar-24 15:33N 60°25' E 005°04'5 4.9
2017-Mar-24 14:32N 60°24' E 005°14'0 0.0
2017-Mar-24 13:29N 60°24' E 005°14'0 0.0
2017-Mar-24 12:30N 60°24' E 005°14'0 0.0
2017-Mar-24 11:32N 60°24' E 005°14'0 0.0
2017-Mar-24 10:32N 60°24' E 005°14'0 0.0
2017-Mar-24 09:33N 60°24' E 005°14'0 0.0
2017-Mar-24 08:33N 60°24' E 005°14'0 0.0
2017-Mar-24 07:32N 60°24' E 005°14'0 0.0
2017-Mar-24 06:31N 60°24' E 005°14'0 0.0
2017-Mar-24 05:31N 60°24' E 005°14'0 0.2
2017-Mar-24 04:34N 60°24' E 005°14'1110.5
2017-Mar-24 03:34N 60°13' E 005°10'1313.1
2017-Mar-24 02:34N 60°01' E 005°20'1313.3
2017-Mar-24 01:33N 59°50' E 005°33'1212.2
2017-Mar-24 00:33N 59°39' E 005°21'1212.1
2017-Mar-23 23:33N 59°28' E 005°13'4 3.4
2017-Mar-23 22:31N 59°24' E 005°15'0 0.0
2017-Mar-23 21:31N 59°24' E 005°15'0 0.0
2017-Mar-23 20:31N 59°24' E 005°15'0 0.0
2017-Mar-23 19:31N 59°24' E 005°15'0 0.0
2017-Mar-23 18:31N 59°24' E 005°15'0 0.0
2017-Mar-23 17:31N 59°24' E 005°15'0 0.0
2017-Mar-23 16:31N 59°24' E 005°15'0 0.0
2017-Mar-23 15:10N 59°24' E 005°15'0 0.0
2017-Mar-23 14:31N 59°24' E 005°15'0 0.0
2017-Mar-23 13:31N 59°24' E 005°15'0 0.3
2017-Mar-23 12:33N 59°24' E 005°16'1111.1
2017-Mar-23 11:33N 59°13' E 005°21'1010.0
2017-Mar-23 10:33N 59°04' E 005°18'1110.7
2017-Mar-23 09:33N 58°54' E 005°11'1211.8
2017-Mar-23 08:33N 58°42' E 005°13'1212.0
2017-Mar-23 07:33N 58°30' E 005°18'1211.6
2017-Mar-23 06:33N 58°20' E 005°28'1212.1
2017-Mar-23 05:33N 58°12' E 005°45'1312.5
2017-Mar-23 04:33N 58°04' E 006°04'1212.2
2017-Mar-23 03:33N 57°56' E 006°21'1211.8
2017-Mar-23 02:33N 57°48' E 006°38'1212.2
2017-Mar-23 01:33N 57°48' E 007°01'1212.1
2017-Mar-23 00:33N 57°48' E 007°23'1211.9
2017-Mar-22 23:33N 57°54' E 007°43'1212.0
2017-Mar-22 22:33N 58°00' E 008°02'8 8.2
2017-Mar-22 21:33N 58°08' E 007°59'0 0.0
2017-Mar-22 20:32N 58°08' E 007°59'0 0.0
2017-Mar-22 19:32N 58°08' E 007°59'0 0.0
2017-Mar-22 18:32N 58°08' E 007°59'0 0.0
2017-Mar-22 17:32N 58°08' E 007°59'0 0.0
2017-Mar-22 16:32N 58°08' E 007°59'0 0.0
2017-Mar-22 15:33N 58°08' E 007°59'7 6.9
2017-Mar-22 14:33N 58°03' E 008°07'9 8.7
2017-Mar-22 13:33N 57°60' E 008°22'64 7.8
2017-Mar-22 05:20N 57°50' E 010°21'6 7.9
2017-Mar-22 04:34N 57°49' E 010°32'7 7.5
2017-Mar-22 03:33N 57°48' E 010°46'9 8.8
2017-Mar-22 02:33N 57°45' E 011°01'9 8.9
2017-Mar-22 01:34N 57°41' E 011°17'9 9.2
2017-Mar-22 00:33N 57°38' E 011°33'9 8.9
2017-Mar-21 23:34N 57°41' E 011°48'2 2.4
2017-Mar-21 22:32N 57°41' E 011°53'0 0.0
2017-Mar-21 21:32N 57°41' E 011°53'0 0.0
2017-Mar-21 20:32N 57°41' E 011°53'0 0.0
2017-Mar-21 19:32N 57°41' E 011°53'0 0.0
2017-Mar-21 18:32N 57°41' E 011°53'0 0.0
2017-Mar-21 17:32N 57°41' E 011°53'0 0.0
2017-Mar-21 16:32N 57°41' E 011°53'0 0.0
2017-Mar-21 15:32N 57°41' E 011°53'0 0.0
2017-Mar-21 14:32N 57°41' E 011°53'0 0.0
2017-Mar-21 13:32N 57°41' E 011°53'0 0.0
2017-Mar-21 12:32N 57°41' E 011°53'0 0.0
2017-Mar-21 11:32N 57°41' E 011°53'0 0.0
2017-Mar-21 10:32N 57°41' E 011°53'0 0.3
2017-Mar-21 09:33N 57°41' E 011°53'0 0.0
2017-Mar-21 08:32N 57°41' E 011°53'0 0.0
2017-Mar-21 07:32N 57°41' E 011°53'0 0.0
2017-Mar-21 06:32N 57°41' E 011°53'0 0.0
2017-Mar-21 05:32N 57°41' E 011°53'0 0.0
2017-Mar-21 04:32N 57°41' E 011°53'0 0.0
2017-Mar-21 03:33N 57°41' E 011°53'0 0.0
2017-Mar-21 02:33N 57°41' E 011°53'0 0.0
2017-Mar-21 01:33N 57°41' E 011°53'0 0.1
2017-Mar-21 00:33N 57°41' E 011°53'1 0.5
2017-Mar-20 23:32N 57°41' E 011°52'0 0.0
2017-Mar-20 22:29N 57°41' E 011°52'0 0.0
2017-Mar-20 21:32N 57°41' E 011°52'0 0.0
2017-Mar-20 20:32N 57°41' E 011°52'0 0.0
2017-Mar-20 19:32N 57°41' E 011°52'0 0.0
2017-Mar-20 18:32N 57°41' E 011°52'0 0.0
2017-Mar-20 17:32N 57°41' E 011°52'0 0.0
2017-Mar-20 16:32N 57°41' E 011°52'0 0.0
2017-Mar-20 15:32N 57°41' E 011°52'0 0.0
2017-Mar-20 14:32N 57°41' E 011°52'0 0.0
2017-Mar-20 13:32N 57°41' E 011°52'0 0.0
2017-Mar-20 12:32N 57°41' E 011°52'0 0.0
2017-Mar-20 11:32N 57°41' E 011°52'0 0.0
2017-Mar-20 10:32N 57°41' E 011°52'0 0.0
2017-Mar-20 09:32N 57°41' E 011°52'0 0.0
2017-Mar-20 08:32N 57°41' E 011°52'0 0.0
2017-Mar-20 07:32N 57°41' E 011°52'0 0.0
2017-Mar-20 06:32N 57°41' E 011°52'0 0.0
2017-Mar-20 05:33N 57°41' E 011°52'4 4.1
2017-Mar-20 04:33N 57°39' E 011°46'10 9.6
2017-Mar-20 03:33N 57°31' E 011°38'10 9.7
2017-Mar-20 02:33N 57°22' E 011°46'10 9.6
2017-Mar-20 01:33N 57°13' E 011°54'62 9.8
2017-Mar-19 19:14N 56°14' E 012°27'7 9.7
2017-Mar-19 18:33N 56°08' E 012°32'1010.5
2017-Mar-19 17:33N 55°59' E 012°42'9 9.1
2017-Mar-19 16:33N 55°50' E 012°45'10 9.8
2017-Mar-19 15:33N 55°42' E 012°54'9 9.0
2017-Mar-19 14:33N 55°33' E 012°48'1110.9
2017-Mar-19 13:33N 55°23' E 012°41'1110.5
2017-Mar-19 12:33N 55°13' E 012°40'1110.5
2017-Mar-19 11:32N 55°02' E 012°42'1010.2
2017-Mar-19 10:33N 54°52' E 012°44'9 8.8
2017-Mar-19 09:33N 54°44' E 012°40'1010.4
2017-Mar-19 08:33N 54°38' E 012°25'9 9.1
2017-Mar-19 07:33N 54°30' E 012°16'1110.0
2017-Mar-19 06:26N 54°21' E 012°06'9 9.8
2017-Mar-19 05:32N 54°12' E 012°05'3 0.4
2017-Mar-18 22:31N 54°09' E 012°08'0 0.0
2017-Mar-18 21:31N 54°09' E 012°08'0 0.0
2017-Mar-18 19:07N 54°09' E 012°08'0 0.0
2017-Mar-18 18:31N 54°09' E 012°08'0 0.0
2017-Mar-18 15:14N 54°09' E 012°08'2 3.3
2017-Mar-18 14:33N 54°11' E 012°05'1111.5
2017-Mar-18 13:34N 54°22' E 011°59'10 9.7
2017-Mar-18 12:34N 54°29' E 012°11'1111.3
2017-Mar-18 11:34N 54°39' E 012°20'6011.5
2017-Mar-18 06:20N 55°02' E 013°57'910.8
2017-Mar-18 05:31N 55°06' E 014°09'1111.5
2017-Mar-18 04:34N 55°15' E 014°21'1312.5
2017-Mar-18 03:34N 55°25' E 014°35'1212.1
2017-Mar-18 02:33N 55°31' E 014°54'1111.3
2017-Mar-18 01:33N 55°36' E 015°11'1111.1
2017-Mar-18 00:33N 55°40' E 015°29'1111.2
2017-Mar-17 23:34N 55°46' E 015°46'1111.1
2017-Mar-17 22:33N 55°53' E 016°02'1110.8
2017-Mar-17 21:34N 55°59' E 016°17'1111.1
2017-Mar-17 20:34N 56°06' E 016°34'1110.8
2017-Mar-17 19:33N 56°14' E 016°47'1211.4
2017-Mar-17 18:32N 56°25' E 016°54'  

Dump ship's entire track history